sensor_id;sensor_type;location;lat;lon;timestamp;temperature;humidity
21306;DHT22;10812;51.838;5.838;2023-05-07T00:06:45;15.00;99.90
21306;DHT22;10812;51.838;5.838;2023-05-07T00:09:13;15.00;99.90
21306;DHT22;10812;51.838;5.838;2023-05-07T00:11:43;14.90;99.90
21306;DHT22;10812;51.838;5.838;2023-05-07T00:14:11;14.80;99.90
21306;DHT22;10812;51.838;5.838;2023-05-07T00:16:39;14.70;99.90
21306;DHT22;10812;51.838;5.838;2023-05-07T00:19:07;14.70;99.90
21306;DHT22;10812;51.838;5.838;2023-05-07T00:21:35;14.70;99.90
21306;DHT22;10812;51.838;5.838;2023-05-07T00:24:05;14.60;99.90
21306;DHT22;10812;51.838;5.838;2023-05-07T00:26:33;14.60;99.90
21306;DHT22;10812;51.838;5.838;2023-05-07T00:29:01;14.50;99.90
21306;DHT22;10812;51.838;5.838;2023-05-07T00:31:29;14.50;99.90
21306;DHT22;10812;51.838;5.838;2023-05-07T00:33:57;14.40;99.90
21306;DHT22;10812;51.838;5.838;2023-05-07T00:36:26;14.40;99.90
21306;DHT22;10812;51.838;5.838;2023-05-07T00:38:54;14.40;99.90
21306;DHT22;10812;51.838;5.838;2023-05-07T00:41:24;14.40;99.90
21306;DHT22;10812;51.838;5.838;2023-05-07T00:43:52;14.40;99.90
21306;DHT22;10812;51.838;5.838;2023-05-07T00:46:21;14.40;99.90
21306;DHT22;10812;51.838;5.838;2023-05-07T00:48:50;14.40;99.90
21306;DHT22;10812;51.838;5.838;2023-05-07T00:51:18;14.40;99.90
21306;DHT22;10812;51.838;5.838;2023-05-07T00:53:46;14.40;99.90
21306;DHT22;10812;51.838;5.838;2023-05-07T00:56:15;14.40;99.90
21306;DHT22;10812;51.838;5.838;2023-05-07T00:58:44;14.50;99.90
21306;DHT22;10812;51.838;5.838;2023-05-07T01:01:13;14.50;99.90
21306;DHT22;10812;51.838;5.838;2023-05-07T01:03:42;14.60;99.90
21306;DHT22;10812;51.838;5.838;2023-05-07T01:06:12;14.70;99.90
21306;DHT22;10812;51.838;5.838;2023-05-07T01:08:44;14.60;99.90
21306;DHT22;10812;51.838;5.838;2023-05-07T01:11:13;14.40;99.90
21306;DHT22;10812;51.838;5.838;2023-05-07T01:13:41;14.30;99.90
21306;DHT22;10812;51.838;5.838;2023-05-07T01:16:11;14.20;99.90
21306;DHT22;10812;51.838;5.838;2023-05-07T01:18:39;14.40;99.90
21306;DHT22;10812;51.838;5.838;2023-05-07T01:21:10;14.50;99.90
21306;DHT22;10812;51.838;5.838;2023-05-07T01:23:40;14.60;99.90
21306;DHT22;10812;51.838;5.838;2023-05-07T01:26:09;14.70;99.90
21306;DHT22;10812;51.838;5.838;2023-05-07T01:40:21;14.50;99.90
21306;DHT22;10812;51.838;5.838;2023-05-07T01:42:50;14.50;99.90
21306;DHT22;10812;51.838;5.838;2023-05-07T01:45:18;14.60;99.90
21306;DHT22;10812;51.838;5.838;2023-05-07T01:47:46;14.60;99.90
21306;DHT22;10812;51.838;5.838;2023-05-07T01:50:16;14.60;99.90
21306;DHT22;10812;51.838;5.838;2023-05-07T01:52:45;14.60;99.90
21306;DHT22;10812;51.838;5.838;2023-05-07T01:55:13;14.60;99.90
21306;DHT22;10812;51.838;5.838;2023-05-07T01:57:42;14.60;99.90
21306;DHT22;10812;51.838;5.838;2023-05-07T02:00:11;14.60;99.90
21306;DHT22;10812;51.838;5.838;2023-05-07T02:02:39;14.70;99.90
21306;DHT22;10812;51.838;5.838;2023-05-07T02:05:08;14.80;99.90
21306;DHT22;10812;51.838;5.838;2023-05-07T02:07:36;14.80;99.90
21306;DHT22;10812;51.838;5.838;2023-05-07T02:10:05;14.80;99.90
21306;DHT22;10812;51.838;5.838;2023-05-07T02:12:34;14.70;99.90
21306;DHT22;10812;51.838;5.838;2023-05-07T02:15:04;14.70;99.90
21306;DHT22;10812;51.838;5.838;2023-05-07T02:17:33;14.60;99.90
21306;DHT22;10812;51.838;5.838;2023-05-07T02:20:02;14.60;99.90
21306;DHT22;10812;51.838;5.838;2023-05-07T02:22:31;14.60;99.90
21306;DHT22;10812;51.838;5.838;2023-05-07T02:24:59;14.60;99.90
21306;DHT22;10812;51.838;5.838;2023-05-07T02:27:27;14.60;99.90
21306;DHT22;10812;51.838;5.838;2023-05-07T02:29:55;14.50;99.90
21306;DHT22;10812;51.838;5.838;2023-05-07T02:32:25;14.50;99.90
21306;DHT22;10812;51.838;5.838;2023-05-07T02:42:35;14.50;99.90
21306;DHT22;10812;51.838;5.838;2023-05-07T02:45:03;14.50;99.90
21306;DHT22;10812;51.838;5.838;2023-05-07T02:47:33;14.40;99.90
21306;DHT22;10812;51.838;5.838;2023-05-07T02:50:01;14.40;99.90
21306;DHT22;10812;51.838;5.838;2023-05-07T02:52:30;14.40;99.90
21306;DHT22;10812;51.838;5.838;2023-05-07T02:54:58;14.30;99.90
21306;DHT22;10812;51.838;5.838;2023-05-07T02:57:26;14.30;99.90
21306;DHT22;10812;51.838;5.838;2023-05-07T02:59:54;14.30;99.90
21306;DHT22;10812;51.838;5.838;2023-05-07T03:07:54;14.20;99.90
21306;DHT22;10812;51.838;5.838;2023-05-07T03:10:22;14.20;99.90
21306;DHT22;10812;51.838;5.838;2023-05-07T03:12:50;14.20;99.90
21306;DHT22;10812;51.838;5.838;2023-05-07T03:15:19;14.20;99.90
21306;DHT22;10812;51.838;5.838;2023-05-07T03:17:47;14.20;99.90
21306;DHT22;10812;51.838;5.838;2023-05-07T03:20:15;14.10;99.90
21306;DHT22;10812;51.838;5.838;2023-05-07T03:22:44;14.10;99.90
21306;DHT22;10812;51.838;5.838;2023-05-07T03:25:13;14.10;99.90
21306;DHT22;10812;51.838;5.838;2023-05-07T03:27:41;14.10;99.90
21306;DHT22;10812;51.838;5.838;2023-05-07T03:30:11;14.10;99.90
21306;DHT22;10812;51.838;5.838;2023-05-07T03:32:39;14.10;99.90
21306;DHT22;10812;51.838;5.838;2023-05-07T03:35:08;14.10;99.90
21306;DHT22;10812;51.838;5.838;2023-05-07T03:37:37;14.20;99.90
21306;DHT22;10812;51.838;5.838;2023-05-07T03:40:06;14.10;99.90
21306;DHT22;10812;51.838;5.838;2023-05-07T03:42:39;14.10;99.90
21306;DHT22;10812;51.838;5.838;2023-05-07T03:45:08;14.20;99.90
21306;DHT22;10812;51.838;5.838;2023-05-07T03:47:36;14.20;99.90
21306;DHT22;10812;51.838;5.838;2023-05-07T03:50:05;14.30;99.90
21306;DHT22;10812;51.838;5.838;2023-05-07T03:52:33;14.40;99.90
21306;DHT22;10812;51.838;5.838;2023-05-07T03:55:01;14.40;99.90
21306;DHT22;10812;51.838;5.838;2023-05-07T03:57:29;14.50;99.90
21306;DHT22;10812;51.838;5.838;2023-05-07T04:00:23;14.40;99.90
21306;DHT22;10812;51.838;5.838;2023-05-07T04:02:51;14.30;99.90
21306;DHT22;10812;51.838;5.838;2023-05-07T04:05:20;14.30;99.90
21306;DHT22;10812;51.838;5.838;2023-05-07T04:07:48;14.30;99.90
21306;DHT22;10812;51.838;5.838;2023-05-07T04:10:16;14.30;99.90
21306;DHT22;10812;51.838;5.838;2023-05-07T04:12:44;14.40;99.90
21306;DHT22;10812;51.838;5.838;2023-05-07T04:15:12;14.30;99.90
21306;DHT22;10812;51.838;5.838;2023-05-07T04:17:42;14.40;99.90
21306;DHT22;10812;51.838;5.838;2023-05-07T04:20:14;14.20;99.90
21306;DHT22;10812;51.838;5.838;2023-05-07T04:22:43;14.20;99.90
21306;DHT22;10812;51.838;5.838;2023-05-07T04:25:11;14.30;99.90
21306;DHT22;10812;51.838;5.838;2023-05-07T04:27:39;14.30;99.90
21306;DHT22;10812;51.838;5.838;2023-05-07T04:30:08;14.20;99.90
21306;DHT22;10812;51.838;5.838;2023-05-07T04:32:36;14.20;99.90
21306;DHT22;10812;51.838;5.838;2023-05-07T04:38:20;14.20;99.90
21306;DHT22;10812;51.838;5.838;2023-05-07T04:40:50;14.20;99.90
21306;DHT22;10812;51.838;5.838;2023-05-07T04:43:18;14.10;99.90
21306;DHT22;10812;51.838;5.838;2023-05-07T04:45:46;14.10;99.90
21306;DHT22;10812;51.838;5.838;2023-05-07T04:48:16;14.20;99.90
21306;DHT22;10812;51.838;5.838;2023-05-07T04:50:47;14.20;99.90
21306;DHT22;10812;51.838;5.838;2023-05-07T04:53:16;14.10;99.90
21306;DHT22;10812;51.838;5.838;2023-05-07T04:55:45;14.20;99.90
21306;DHT22;10812;51.838;5.838;2023-05-07T04:58:14;14.20;99.90
21306;DHT22;10812;51.838;5.838;2023-05-07T05:00:42;14.20;99.90
21306;DHT22;10812;51.838;5.838;2023-05-07T05:03:10;14.10;99.90
21306;DHT22;10812;51.838;5.838;2023-05-07T05:05:38;14.10;99.90
21306;DHT22;10812;51.838;5.838;2023-05-07T05:08:07;14.10;99.90
21306;DHT22;10812;51.838;5.838;2023-05-07T05:10:35;14.10;99.90
21306;DHT22;10812;51.838;5.838;2023-05-07T05:13:04;14.10;99.90
21306;DHT22;10812;51.838;5.838;2023-05-07T05:15:32;14.10;99.90
21306;DHT22;10812;51.838;5.838;2023-05-07T05:18:00;14.20;99.90
21306;DHT22;10812;51.838;5.838;2023-05-07T05:20:29;14.20;99.90
21306;DHT22;10812;51.838;5.838;2023-05-07T05:22:57;14.20;99.90
21306;DHT22;10812;51.838;5.838;2023-05-07T05:25:25;14.40;99.90
21306;DHT22;10812;51.838;5.838;2023-05-07T05:27:54;14.40;99.90
21306;DHT22;10812;51.838;5.838;2023-05-07T05:34:14;14.40;99.90
21306;DHT22;10812;51.838;5.838;2023-05-07T05:36:42;14.40;99.90
21306;DHT22;10812;51.838;5.838;2023-05-07T05:39:11;14.40;99.90
21306;DHT22;10812;51.838;5.838;2023-05-07T05:41:39;14.40;99.90
21306;DHT22;10812;51.838;5.838;2023-05-07T05:44:07;14.40;99.90
21306;DHT22;10812;51.838;5.838;2023-05-07T05:46:35;14.40;99.90
21306;DHT22;10812;51.838;5.838;2023-05-07T05:49:03;14.40;99.90
21306;DHT22;10812;51.838;5.838;2023-05-07T05:51:33;14.40;99.90
21306;DHT22;10812;51.838;5.838;2023-05-07T05:54:01;14.60;99.90
21306;DHT22;10812;51.838;5.838;2023-05-07T05:56:29;14.80;99.90
21306;DHT22;10812;51.838;5.838;2023-05-07T05:58:57;14.80;99.90
21306;DHT22;10812;51.838;5.838;2023-05-07T06:01:26;14.80;99.90
21306;DHT22;10812;51.838;5.838;2023-05-07T06:03:54;14.70;99.90
21306;DHT22;10812;51.838;5.838;2023-05-07T06:06:22;14.70;99.90
21306;DHT22;10812;51.838;5.838;2023-05-07T06:08:51;14.70;99.90
21306;DHT22;10812;51.838;5.838;2023-05-07T06:11:19;15.00;99.90
21306;DHT22;10812;51.838;5.838;2023-05-07T06:13:48;15.20;99.90
21306;DHT22;10812;51.838;5.838;2023-05-07T06:16:16;15.10;99.90
21306;DHT22;10812;51.838;5.838;2023-05-07T06:18:44;15.20;99.90
21306;DHT22;10812;51.838;5.838;2023-05-07T06:21:13;15.20;99.90
21306;DHT22;10812;51.838;5.838;2023-05-07T06:23:41;15.00;99.90
21306;DHT22;10812;51.838;5.838;2023-05-07T06:26:11;15.00;99.90
21306;DHT22;10812;51.838;5.838;2023-05-07T06:28:39;14.90;99.90
21306;DHT22;10812;51.838;5.838;2023-05-07T06:31:14;14.90;99.90
21306;DHT22;10812;51.838;5.838;2023-05-07T06:33:43;14.90;99.90
21306;DHT22;10812;51.838;5.838;2023-05-07T06:36:12;14.90;99.90
21306;DHT22;10812;51.838;5.838;2023-05-07T06:38:40;15.00;99.90
21306;DHT22;10812;51.838;5.838;2023-05-07T06:41:08;14.90;99.90
21306;DHT22;10812;51.838;5.838;2023-05-07T06:43:38;14.90;99.90
21306;DHT22;10812;51.838;5.838;2023-05-07T06:46:06;14.90;99.90
21306;DHT22;10812;51.838;5.838;2023-05-07T06:48:34;14.80;99.90
21306;DHT22;10812;51.838;5.838;2023-05-07T06:51:02;15.00;99.90
21306;DHT22;10812;51.838;5.838;2023-05-07T06:53:31;14.90;99.90
21306;DHT22;10812;51.838;5.838;2023-05-07T06:55:59;14.90;99.90
21306;DHT22;10812;51.838;5.838;2023-05-07T06:58:27;14.80;99.90
21306;DHT22;10812;51.838;5.838;2023-05-07T07:00:56;15.10;99.90
21306;DHT22;10812;51.838;5.838;2023-05-07T07:03:24;15.20;99.90
21306;DHT22;10812;51.838;5.838;2023-05-07T07:05:52;15.20;99.90
21306;DHT22;10812;51.838;5.838;2023-05-07T07:08:21;15.30;99.90
21306;DHT22;10812;51.838;5.838;2023-05-07T07:10:50;15.40;99.90
21306;DHT22;10812;51.838;5.838;2023-05-07T07:13:18;15.40;99.90
21306;DHT22;10812;51.838;5.838;2023-05-07T07:15:46;15.40;99.90
21306;DHT22;10812;51.838;5.838;2023-05-07T07:18:16;15.40;99.90
21306;DHT22;10812;51.838;5.838;2023-05-07T07:20:44;15.50;99.90
21306;DHT22;10812;51.838;5.838;2023-05-07T07:23:12;15.90;99.90
21306;DHT22;10812;51.838;5.838;2023-05-07T07:25:40;16.10;99.90
21306;DHT22;10812;51.838;5.838;2023-05-07T07:28:08;16.10;99.90
21306;DHT22;10812;51.838;5.838;2023-05-07T07:30:37;16.10;99.90
21306;DHT22;10812;51.838;5.838;2023-05-07T07:33:05;16.00;99.90
21306;DHT22;10812;51.838;5.838;2023-05-07T07:35:35;16.10;99.90
21306;DHT22;10812;51.838;5.838;2023-05-07T07:38:03;16.20;99.90
21306;DHT22;10812;51.838;5.838;2023-05-07T07:40:33;16.10;99.90
21306;DHT22;10812;51.838;5.838;2023-05-07T07:43:02;16.00;99.90
21306;DHT22;10812;51.838;5.838;2023-05-07T07:45:30;16.00;99.90
21306;DHT22;10812;51.838;5.838;2023-05-07T07:47:58;16.00;99.90
21306;DHT22;10812;51.838;5.838;2023-05-07T07:50:26;16.00;99.90
21306;DHT22;10812;51.838;5.838;2023-05-07T07:53:12;16.10;99.90
21306;DHT22;10812;51.838;5.838;2023-05-07T07:55:40;16.10;99.90
21306;DHT22;10812;51.838;5.838;2023-05-07T07:58:08;16.20;99.90
21306;DHT22;10812;51.838;5.838;2023-05-07T08:00:36;16.60;99.90
21306;DHT22;10812;51.838;5.838;2023-05-07T08:03:04;16.70;99.90
21306;DHT22;10812;51.838;5.838;2023-05-07T08:05:34;16.80;99.90
21306;DHT22;10812;51.838;5.838;2023-05-07T08:08:03;17.00;99.90
21306;DHT22;10812;51.838;5.838;2023-05-07T08:10:34;17.10;99.90
21306;DHT22;10812;51.838;5.838;2023-05-07T08:13:05;17.00;99.90
21306;DHT22;10812;51.838;5.838;2023-05-07T08:15:33;17.00;99.90
21306;DHT22;10812;51.838;5.838;2023-05-07T08:18:02;16.90;99.90
21306;DHT22;10812;51.838;5.838;2023-05-07T08:20:30;16.80;99.90
21306;DHT22;10812;51.838;5.838;2023-05-07T08:22:59;17.00;99.90
21306;DHT22;10812;51.838;5.838;2023-05-07T08:25:27;17.10;99.90
21306;DHT22;10812;51.838;5.838;2023-05-07T08:27:56;17.10;99.90
21306;DHT22;10812;51.838;5.838;2023-05-07T08:30:25;17.20;99.90
21306;DHT22;10812;51.838;5.838;2023-05-07T08:32:53;17.20;99.90
21306;DHT22;10812;51.838;5.838;2023-05-07T08:35:22;17.40;99.90
21306;DHT22;10812;51.838;5.838;2023-05-07T08:37:50;17.90;99.90
21306;DHT22;10812;51.838;5.838;2023-05-07T08:40:18;18.40;99.90
21306;DHT22;10812;51.838;5.838;2023-05-07T08:42:49;18.70;99.90
21306;DHT22;10812;51.838;5.838;2023-05-07T08:45:20;18.60;99.90
21306;DHT22;10812;51.838;5.838;2023-05-07T08:47:55;18.70;99.90
21306;DHT22;10812;51.838;5.838;2023-05-07T08:50:24;18.70;99.90
21306;DHT22;10812;51.838;5.838;2023-05-07T08:52:53;18.80;99.90
21306;DHT22;10812;51.838;5.838;2023-05-07T08:55:21;19.60;99.90
21306;DHT22;10812;51.838;5.838;2023-05-07T08:57:50;19.70;99.90
21306;DHT22;10812;51.838;5.838;2023-05-07T09:00:21;20.20;99.90
21306;DHT22;10812;51.838;5.838;2023-05-07T09:02:49;20.10;99.90
21306;DHT22;10812;51.838;5.838;2023-05-07T09:05:17;20.00;99.90
21306;DHT22;10812;51.838;5.838;2023-05-07T09:07:46;20.50;99.90
21306;DHT22;10812;51.838;5.838;2023-05-07T09:10:14;21.50;99.90
21306;DHT22;10812;51.838;5.838;2023-05-07T09:12:43;21.20;99.90
21306;DHT22;10812;51.838;5.838;2023-05-07T09:15:11;22.10;99.90
21306;DHT22;10812;51.838;5.838;2023-05-07T09:17:41;22.30;99.90
21306;DHT22;10812;51.838;5.838;2023-05-07T09:20:11;21.90;99.90
21306;DHT22;10812;51.838;5.838;2023-05-07T09:22:39;21.60;99.90
21306;DHT22;10812;51.838;5.838;2023-05-07T09:25:08;21.50;99.90
21306;DHT22;10812;51.838;5.838;2023-05-07T09:27:37;21.70;99.90
21306;DHT22;10812;51.838;5.838;2023-05-07T09:30:06;21.60;99.90
21306;DHT22;10812;51.838;5.838;2023-05-07T09:32:35;21.70;99.90
21306;DHT22;10812;51.838;5.838;2023-05-07T09:35:14;21.80;99.90
21306;DHT22;10812;51.838;5.838;2023-05-07T09:37:43;22.10;99.90
21306;DHT22;10812;51.838;5.838;2023-05-07T09:40:20;22.50;99.90
21306;DHT22;10812;51.838;5.838;2023-05-07T09:42:49;22.80;99.90
21306;DHT22;10812;51.838;5.838;2023-05-07T09:45:21;23.10;99.90
21306;DHT22;10812;51.838;5.838;2023-05-07T09:47:54;23.90;99.90
21306;DHT22;10812;51.838;5.838;2023-05-07T09:50:29;24.60;99.90
21306;DHT22;10812;51.838;5.838;2023-05-07T09:52:57;24.30;99.90
21306;DHT22;10812;51.838;5.838;2023-05-07T09:55:25;25.00;99.90
21306;DHT22;10812;51.838;5.838;2023-05-07T09:57:53;24.90;99.90
21306;DHT22;10812;51.838;5.838;2023-05-07T10:00:22;24.70;99.90
21306;DHT22;10812;51.838;5.838;2023-05-07T10:02:52;23.40;99.90
21306;DHT22;10812;51.838;5.838;2023-05-07T10:05:21;23.70;99.90
21306;DHT22;10812;51.838;5.838;2023-05-07T10:07:51;23.90;99.90
21306;DHT22;10812;51.838;5.838;2023-05-07T10:10:21;23.70;99.90
21306;DHT22;10812;51.838;5.838;2023-05-07T10:12:50;23.60;99.90
21306;DHT22;10812;51.838;5.838;2023-05-07T10:15:19;22.70;99.90
21306;DHT22;10812;51.838;5.838;2023-05-07T10:29:33;22.40;99.90
21306;DHT22;10812;51.838;5.838;2023-05-07T10:32:30;22.20;99.90
21306;DHT22;10812;51.838;5.838;2023-05-07T10:35:03;22.30;99.90
21306;DHT22;10812;51.838;5.838;2023-05-07T10:49:12;22.20;99.90
21306;DHT22;10812;51.838;5.838;2023-05-07T10:51:41;22.50;99.90
21306;DHT22;10812;51.838;5.838;2023-05-07T10:54:21;22.90;99.90
21306;DHT22;10812;51.838;5.838;2023-05-07T10:56:50;22.80;99.90
21306;DHT22;10812;51.838;5.838;2023-05-07T10:59:31;22.80;99.90
21306;DHT22;10812;51.838;5.838;2023-05-07T11:02:01;22.70;99.90
21306;DHT22;10812;51.838;5.838;2023-05-07T11:04:32;22.60;99.90
21306;DHT22;10812;51.838;5.838;2023-05-07T11:07:35;22.90;99.90
21306;DHT22;10812;51.838;5.838;2023-05-07T11:10:04;23.00;99.90
21306;DHT22;10812;51.838;5.838;2023-05-07T11:12:47;23.00;99.90
21306;DHT22;10812;51.838;5.838;2023-05-07T11:15:37;22.80;99.90
21306;DHT22;10812;51.838;5.838;2023-05-07T11:18:05;22.80;99.90
21306;DHT22;10812;51.838;5.838;2023-05-07T11:20:55;22.90;99.90
21306;DHT22;10812;51.838;5.838;2023-05-07T11:26:45;22.50;99.90
21306;DHT22;10812;51.838;5.838;2023-05-07T11:29:14;22.40;99.90
21306;DHT22;10812;51.838;5.838;2023-05-07T11:31:49;22.40;99.90
21306;DHT22;10812;51.838;5.838;2023-05-07T11:34:21;22.00;99.90
21306;DHT22;10812;51.838;5.838;2023-05-07T11:36:52;21.80;99.90
21306;DHT22;10812;51.838;5.838;2023-05-07T11:46:08;21.60;99.90
21306;DHT22;10812;51.838;5.838;2023-05-07T11:48:38;21.80;99.90
21306;DHT22;10812;51.838;5.838;2023-05-07T11:51:07;21.90;99.90
21306;DHT22;10812;51.838;5.838;2023-05-07T11:53:41;22.20;99.90
21306;DHT22;10812;51.838;5.838;2023-05-07T11:56:11;22.30;99.90
21306;DHT22;10812;51.838;5.838;2023-05-07T11:58:40;21.90;99.90
21306;DHT22;10812;51.838;5.838;2023-05-07T12:01:09;22.00;99.90
21306;DHT22;10812;51.838;5.838;2023-05-07T12:03:39;22.10;99.90
21306;DHT22;10812;51.838;5.838;2023-05-07T12:06:10;21.90;99.90
21306;DHT22;10812;51.838;5.838;2023-05-07T12:08:40;22.00;99.90
21306;DHT22;10812;51.838;5.838;2023-05-07T12:11:14;22.00;99.90
21306;DHT22;10812;51.838;5.838;2023-05-07T12:13:44;22.00;99.90
21306;DHT22;10812;51.838;5.838;2023-05-07T12:16:12;22.50;99.90
21306;DHT22;10812;51.838;5.838;2023-05-07T12:18:41;22.30;99.90
21306;DHT22;10812;51.838;5.838;2023-05-07T12:21:09;22.40;99.90
21306;DHT22;10812;51.838;5.838;2023-05-07T12:23:39;22.30;99.90
21306;DHT22;10812;51.838;5.838;2023-05-07T12:26:08;22.30;99.90
21306;DHT22;10812;51.838;5.838;2023-05-07T12:32:28;22.10;99.90
21306;DHT22;10812;51.838;5.838;2023-05-07T12:38:49;22.40;99.90
21306;DHT22;10812;51.838;5.838;2023-05-07T12:41:17;22.60;99.90
21306;DHT22;10812;51.838;5.838;2023-05-07T12:43:56;23.00;99.90
21306;DHT22;10812;51.838;5.838;2023-05-07T12:46:24;22.70;99.90
21306;DHT22;10812;51.838;5.838;2023-05-07T12:48:53;22.70;99.90
21306;DHT22;10812;51.838;5.838;2023-05-07T12:51:22;22.60;99.90
21306;DHT22;10812;51.838;5.838;2023-05-07T12:53:55;22.80;99.90
21306;DHT22;10812;51.838;5.838;2023-05-07T12:56:24;22.60;99.90
21306;DHT22;10812;51.838;5.838;2023-05-07T12:58:57;22.40;99.90
21306;DHT22;10812;51.838;5.838;2023-05-07T13:01:29;22.30;99.90
21306;DHT22;10812;51.838;5.838;2023-05-07T13:04:00;22.70;99.90
21306;DHT22;10812;51.838;5.838;2023-05-07T13:06:30;22.70;99.90
21306;DHT22;10812;51.838;5.838;2023-05-07T13:09:00;22.40;99.90
21306;DHT22;10812;51.838;5.838;2023-05-07T13:11:28;22.50;99.90
21306;DHT22;10812;51.838;5.838;2023-05-07T13:13:56;22.70;99.90
21306;DHT22;10812;51.838;5.838;2023-05-07T13:16:24;23.10;99.90
21306;DHT22;10812;51.838;5.838;2023-05-07T13:18:52;23.30;99.90
21306;DHT22;10812;51.838;5.838;2023-05-07T13:21:20;23.00;99.90
21306;DHT22;10812;51.838;5.838;2023-05-07T13:23:49;22.90;99.90
21306;DHT22;10812;51.838;5.838;2023-05-07T13:26:18;22.60;99.90
21306;DHT22;10812;51.838;5.838;2023-05-07T13:28:53;22.60;99.90
21306;DHT22;10812;51.838;5.838;2023-05-07T13:31:21;22.40;99.90
21306;DHT22;10812;51.838;5.838;2023-05-07T13:33:49;22.50;99.90
21306;DHT22;10812;51.838;5.838;2023-05-07T13:36:19;22.60;99.90
21306;DHT22;10812;51.838;5.838;2023-05-07T13:38:47;22.40;99.90
21306;DHT22;10812;51.838;5.838;2023-05-07T13:41:15;22.60;99.90
21306;DHT22;10812;51.838;5.838;2023-05-07T13:43:45;22.50;99.90
21306;DHT22;10812;51.838;5.838;2023-05-07T13:46:13;22.70;99.90
21306;DHT22;10812;51.838;5.838;2023-05-07T13:48:41;22.80;99.90
21306;DHT22;10812;51.838;5.838;2023-05-07T13:51:09;22.80;99.90
21306;DHT22;10812;51.838;5.838;2023-05-07T13:53:37;22.80;99.90
21306;DHT22;10812;51.838;5.838;2023-05-07T13:56:06;22.80;99.90
21306;DHT22;10812;51.838;5.838;2023-05-07T13:58:34;22.70;99.90
21306;DHT22;10812;51.838;5.838;2023-05-07T14:01:15;22.60;99.90
21306;DHT22;10812;51.838;5.838;2023-05-07T14:03:43;22.60;99.90
21306;DHT22;10812;51.838;5.838;2023-05-07T14:06:12;22.70;99.90
21306;DHT22;10812;51.838;5.838;2023-05-07T14:08:40;22.80;99.90
21306;DHT22;10812;51.838;5.838;2023-05-07T14:11:08;22.70;99.90
21306;DHT22;10812;51.838;5.838;2023-05-07T14:13:36;22.70;99.90
21306;DHT22;10812;51.838;5.838;2023-05-07T14:16:05;22.60;99.90
21306;DHT22;10812;51.838;5.838;2023-05-07T14:18:34;22.50;99.90
21306;DHT22;10812;51.838;5.838;2023-05-07T14:21:04;22.40;99.90
21306;DHT22;10812;51.838;5.838;2023-05-07T14:23:34;22.50;99.90
21306;DHT22;10812;51.838;5.838;2023-05-07T14:26:02;22.70;99.90
21306;DHT22;10812;51.838;5.838;2023-05-07T14:28:31;22.70;99.90
21306;DHT22;10812;51.838;5.838;2023-05-07T14:30:59;22.70;99.90
21306;DHT22;10812;51.838;5.838;2023-05-07T14:33:27;22.60;99.90
21306;DHT22;10812;51.838;5.838;2023-05-07T14:35:57;22.50;99.90
21306;DHT22;10812;51.838;5.838;2023-05-07T14:38:25;22.50;99.90
21306;DHT22;10812;51.838;5.838;2023-05-07T14:40:53;22.20;99.90
21306;DHT22;10812;51.838;5.838;2023-05-07T14:43:23;21.60;99.90
21306;DHT22;10812;51.838;5.838;2023-05-07T14:45:51;21.10;99.90
21306;DHT22;10812;51.838;5.838;2023-05-07T14:48:19;20.70;99.90
21306;DHT22;10812;51.838;5.838;2023-05-07T14:50:48;20.40;99.90
21306;DHT22;10812;51.838;5.838;2023-05-07T14:53:17;20.10;99.90
21306;DHT22;10812;51.838;5.838;2023-05-07T14:55:46;19.80;99.90
21306;DHT22;10812;51.838;5.838;2023-05-07T14:58:14;19.60;99.90
21306;DHT22;10812;51.838;5.838;2023-05-07T15:00:43;19.40;99.90
21306;DHT22;10812;51.838;5.838;2023-05-07T15:03:11;19.30;99.90
21306;DHT22;10812;51.838;5.838;2023-05-07T15:05:40;19.00;99.90
21306;DHT22;10812;51.838;5.838;2023-05-07T15:08:08;18.70;99.90
21306;DHT22;10812;51.838;5.838;2023-05-07T15:10:38;18.40;99.90
21306;DHT22;10812;51.838;5.838;2023-05-07T15:13:08;18.10;99.90
21306;DHT22;10812;51.838;5.838;2023-05-07T15:15:42;17.80;99.90
21306;DHT22;10812;51.838;5.838;2023-05-07T15:18:10;17.50;99.90
21306;DHT22;10812;51.838;5.838;2023-05-07T15:20:39;17.20;99.90
21306;DHT22;10812;51.838;5.838;2023-05-07T15:23:08;17.00;99.90
21306;DHT22;10812;51.838;5.838;2023-05-07T15:25:40;16.80;99.90
21306;DHT22;10812;51.838;5.838;2023-05-07T15:28:08;16.80;99.90
21306;DHT22;10812;51.838;5.838;2023-05-07T15:30:37;16.70;99.90
21306;DHT22;10812;51.838;5.838;2023-05-07T15:33:05;16.70;99.90
21306;DHT22;10812;51.838;5.838;2023-05-07T15:35:34;16.70;99.90
21306;DHT22;10812;51.838;5.838;2023-05-07T15:38:02;16.70;99.90
21306;DHT22;10812;51.838;5.838;2023-05-07T15:40:30;16.80;99.90
21306;DHT22;10812;51.838;5.838;2023-05-07T15:43:00;16.80;99.90
21306;DHT22;10812;51.838;5.838;2023-05-07T15:45:29;16.80;99.90
21306;DHT22;10812;51.838;5.838;2023-05-07T15:47:57;16.80;99.90
21306;DHT22;10812;51.838;5.838;2023-05-07T15:50:25;16.80;99.90
21306;DHT22;10812;51.838;5.838;2023-05-07T15:52:55;16.80;99.90
21306;DHT22;10812;51.838;5.838;2023-05-07T15:55:24;16.80;99.90
21306;DHT22;10812;51.838;5.838;2023-05-07T16:09:26;16.90;99.90
21306;DHT22;10812;51.838;5.838;2023-05-07T16:11:55;16.80;99.90
21306;DHT22;10812;51.838;5.838;2023-05-07T16:14:23;16.80;99.90
21306;DHT22;10812;51.838;5.838;2023-05-07T16:16:51;16.80;99.90
21306;DHT22;10812;51.838;5.838;2023-05-07T16:19:22;16.80;99.90
21306;DHT22;10812;51.838;5.838;2023-05-07T16:21:50;16.90;99.90
21306;DHT22;10812;51.838;5.838;2023-05-07T16:24:18;17.00;99.90
21306;DHT22;10812;51.838;5.838;2023-05-07T16:26:48;17.00;99.90
21306;DHT22;10812;51.838;5.838;2023-05-07T16:29:16;16.90;99.90
21306;DHT22;10812;51.838;5.838;2023-05-07T16:31:46;17.00;99.90
21306;DHT22;10812;51.838;5.838;2023-05-07T16:34:14;17.00;99.90
21306;DHT22;10812;51.838;5.838;2023-05-07T16:36:42;17.00;99.90
21306;DHT22;10812;51.838;5.838;2023-05-07T16:39:10;17.00;99.90
21306;DHT22;10812;51.838;5.838;2023-05-07T16:41:38;17.00;99.90
21306;DHT22;10812;51.838;5.838;2023-05-07T16:44:08;16.90;99.90
21306;DHT22;10812;51.838;5.838;2023-05-07T16:46:36;16.90;99.90
21306;DHT22;10812;51.838;5.838;2023-05-07T16:49:04;16.80;99.90
21306;DHT22;10812;51.838;5.838;2023-05-07T16:51:33;16.70;99.90
21306;DHT22;10812;51.838;5.838;2023-05-07T16:54:01;16.70;99.90
21306;DHT22;10812;51.838;5.838;2023-05-07T16:56:29;16.70;99.90
21306;DHT22;10812;51.838;5.838;2023-05-07T16:58:58;16.60;99.90
21306;DHT22;10812;51.838;5.838;2023-05-07T17:01:27;16.60;99.90
21306;DHT22;10812;51.838;5.838;2023-05-07T17:03:58;16.60;99.90
21306;DHT22;10812;51.838;5.838;2023-05-07T17:06:26;16.60;99.90
21306;DHT22;10812;51.838;5.838;2023-05-07T17:08:55;16.50;99.90
21306;DHT22;10812;51.838;5.838;2023-05-07T17:11:23;16.40;99.90
21306;DHT22;10812;51.838;5.838;2023-05-07T17:13:54;16.30;99.90